createdAt,value
2023-04-03T00:02:03.365Z,5.88
2023-04-03T00:05:06.334Z,5.70
2023-04-03T00:08:10.509Z,5.75
2023-04-03T00:11:12.926Z,5.77
2023-04-03T00:14:15.556Z,5.72
2023-04-03T00:17:17.938Z,5.53
2023-04-03T00:20:20.474Z,5.66
2023-04-03T00:23:24.647Z,5.65
2023-04-03T00:26:27.048Z,5.66
2023-04-03T00:29:29.609Z,5.60
2023-04-03T00:32:32.522Z,5.43
2023-04-03T00:35:36.182Z,5.59
2023-04-03T00:38:39.170Z,5.52
2023-04-03T00:41:42.022Z,5.45
2023-04-03T00:44:44.959Z,5.50
2023-04-03T00:47:47.503Z,5.29
2023-04-03T00:50:51.427Z,5.38
2023-04-03T00:54:02.124Z,5.25
2023-04-03T00:57:06.938Z,5.33
2023-04-03T01:00:13.499Z,5.17
2023-04-03T01:03:16.085Z,5.15
2023-04-03T01:06:22.816Z,5.19
2023-04-03T01:09:25.589Z,5.16
2023-04-03T01:12:30.721Z,5.11
2023-04-03T01:15:36.078Z,5.07
2023-04-03T01:18:41.351Z,4.86
2023-04-03T01:22:05.544Z,4.93
2023-04-03T01:25:08.042Z,4.92
2023-04-03T01:28:21.417Z,4.91
2023-04-03T01:31:36.474Z,4.92
2023-04-03T01:34:39.080Z,4.62
2023-04-03T01:37:42.165Z,4.57
2023-04-03T01:40:45.878Z,4.50
2023-04-03T01:43:49.504Z,4.43
2023-04-03T01:46:51.862Z,4.36
2023-04-03T01:49:56.818Z,4.43
2023-04-03T01:52:59.618Z,4.34
2023-04-03T01:56:02.527Z,4.26
2023-04-03T01:59:07.324Z,4.22
2023-04-03T02:02:10.466Z,4.25
2023-04-03T02:05:12.879Z,4.19
2023-04-03T02:08:15.763Z,4.32
2023-04-03T02:11:18.120Z,4.29
2023-04-03T02:14:21.269Z,4.38
2023-04-03T02:17:23.752Z,4.40
2023-04-03T02:20:27.266Z,4.30
2023-04-03T02:23:29.764Z,4.32
2023-04-03T02:26:32.147Z,4.41
2023-04-03T02:29:34.545Z,4.60
2023-04-03T02:32:37.162Z,4.59
2023-04-03T02:35:41.013Z,4.62
2023-04-03T02:38:43.782Z,4.58
2023-04-03T02:41:46.964Z,4.42
2023-04-03T02:44:55.044Z,4.61
2023-04-03T02:47:57.890Z,4.47
2023-04-03T02:51:00.318Z,4.49
2023-04-03T02:54:02.953Z,4.38
2023-04-03T02:57:11.370Z,4.33
2023-04-03T03:00:15.402Z,4.37
2023-04-03T03:03:18.200Z,4.34
2023-04-03T03:06:20.897Z,4.40
2023-04-03T03:09:23.733Z,4.24
2023-04-03T03:12:26.136Z,4.20
2023-04-03T03:15:28.555Z,4.40
2023-04-03T03:18:31.586Z,4.29
2023-04-03T03:21:34.060Z,4.08
2023-04-03T03:24:37.799Z,3.96
2023-04-03T03:27:40.334Z,3.95
2023-04-03T03:30:43.135Z,4.13
2023-04-03T03:33:45.785Z,4.04
2023-04-03T03:36:48.145Z,3.93
2023-04-03T03:39:50.853Z,3.60
2023-04-03T03:42:53.477Z,3.73
2023-04-03T03:45:56.448Z,3.91
2023-04-03T03:49:00.619Z,3.86
2023-04-03T03:52:03.038Z,3.85
2023-04-03T03:55:13.218Z,3.70
2023-04-03T03:58:16.599Z,3.87
2023-04-03T04:01:19.204Z,3.66
2023-04-03T04:04:24.320Z,3.85
2023-04-03T04:07:29.195Z,3.85
2023-04-03T04:10:32.288Z,3.63
2023-04-03T04:13:35.894Z,3.63
2023-04-03T04:16:38.282Z,3.57
2023-04-03T04:19:45.737Z,3.68
2023-04-03T04:22:48.427Z,3.49
2023-04-03T04:25:52.172Z,3.62
2023-04-03T04:28:55.633Z,3.59
2023-04-03T04:31:58.207Z,3.58
2023-04-03T04:35:01.520Z,3.17
2023-04-03T04:38:06.522Z,3.42
2023-04-03T04:41:09.547Z,3.36
2023-04-03T04:44:12.572Z,3.35
2023-04-03T04:47:16.658Z,3.14
2023-04-03T04:50:19.942Z,3.60
2023-04-03T04:53:23.080Z,3.55
2023-04-03T04:56:26.551Z,3.58
2023-04-03T04:59:37.526Z,3.73
2023-04-03T05:02:42.966Z,4.51
2023-04-03T05:05:46.144Z,4.81
2023-04-03T05:08:49.039Z,4.80
2023-04-03T05:11:53.213Z,5.12
2023-04-03T05:14:59.288Z,5.22
2023-04-03T05:18:03.376Z,5.43
2023-04-03T05:21:06.061Z,5.51
2023-04-03T05:24:10.266Z,5.96
2023-04-03T05:27:15.757Z,6.13
2023-04-03T05:30:21.777Z,6.79
2023-04-03T05:33:27.247Z,6.87
2023-04-03T05:36:32.437Z,7.24
2023-04-03T05:39:41.800Z,7.43
2023-04-03T05:42:46.079Z,7.42
2023-04-03T05:45:49.815Z,7.53
2023-04-03T05:48:52.585Z,7.80
2023-04-03T05:51:57.871Z,7.97
2023-04-03T05:55:04.590Z,8.17
2023-04-03T05:58:11.729Z,9.21
2023-04-03T06:01:16.009Z,9.09
2023-04-03T06:04:20.259Z,9.61
2023-04-03T06:07:24.973Z,9.50
2023-04-03T06:10:27.672Z,9.24
2023-04-03T06:13:30.497Z,9.98
2023-04-03T06:16:33.453Z,10.39
2023-04-03T06:19:36.919Z,10.17
2023-04-03T06:22:39.366Z,10.22
2023-04-03T06:25:41.870Z,10.82
2023-04-03T06:28:44.699Z,11.24
2023-04-03T06:31:47.465Z,11.37
2023-04-03T06:34:49.878Z,11.14
2023-04-03T06:37:52.260Z,11.33
2023-04-03T06:40:55.016Z,11.43
2023-04-03T06:43:58.956Z,12.33
2023-04-03T06:47:01.965Z,12.50
2023-04-03T06:50:04.955Z,12.78
2023-04-03T06:53:08.178Z,12.84
2023-04-03T06:56:10.776Z,13.45
2023-04-03T06:59:14.741Z,12.75
2023-04-03T07:02:17.303Z,13.37
2023-04-03T07:05:19.928Z,12.94
2023-04-03T07:08:24.225Z,13.19
2023-04-03T07:11:27.697Z,13.43
2023-04-03T07:14:31.048Z,13.93
2023-04-03T07:17:33.610Z,13.11
2023-04-03T07:20:36.431Z,13.42
2023-04-03T07:23:39.530Z,13.22
2023-04-03T07:26:42.150Z,14.09
2023-04-03T07:29:45.125Z,13.92
2023-04-03T07:32:47.834Z,14.27
2023-04-03T07:35:50.730Z,14.27
2023-04-03T07:38:53.423Z,13.77
2023-04-03T07:41:58.939Z,14.74
2023-04-03T07:45:01.868Z,14.51
2023-04-03T07:48:04.535Z,14.78
2023-04-03T07:51:07.230Z,14.92
2023-04-03T07:54:10.023Z,14.68
2023-04-03T07:57:12.765Z,14.30
2023-04-03T08:00:18.767Z,15.07
2023-04-03T08:03:21.369Z,14.15
2023-04-03T08:06:37.474Z,14.84
2023-04-03T08:09:46.556Z,15.57
2023-04-03T08:12:49.353Z,14.61
2023-04-03T08:15:51.948Z,15.12
2023-04-03T08:18:55.861Z,14.74
2023-04-03T08:21:59.655Z,14.51
2023-04-03T08:25:02.886Z,14.72
2023-04-03T08:28:06.630Z,15.03
2023-04-03T08:31:12.820Z,15.49
2023-04-03T08:34:15.678Z,15.30
2023-04-03T08:37:20.723Z,15.26
2023-04-03T08:40:23.373Z,15.51
2023-04-03T08:43:31.536Z,15.84
2023-04-03T08:47:03.311Z,15.70
2023-04-03T08:50:16.486Z,15.55
2023-04-03T08:53:27.783Z,15.46
2023-04-03T08:56:32.116Z,16.24
2023-04-03T08:59:37.355Z,15.02
2023-04-03T09:02:47.325Z,15.41
2023-04-03T09:06:22.785Z,15.88
2023-04-03T09:09:33.373Z,15.39
2023-04-03T09:12:43.731Z,14.92
2023-04-03T09:15:46.101Z,15.19
2023-04-03T09:18:56.866Z,15.96
2023-04-03T09:22:24.869Z,16.25
2023-04-03T09:25:33.757Z,16.02
2023-04-03T09:28:49.307Z,15.26
2023-04-03T09:32:17.011Z,15.79
2023-04-03T09:35:47.210Z,16.27
2023-04-03T09:39:09.202Z,15.74
2023-04-03T09:42:32.090Z,15.62
2023-04-03T09:45:37.199Z,16.35
2023-04-03T09:48:39.795Z,16.42
2023-04-03T09:51:42.498Z,16.83
2023-04-03T09:54:45.023Z,16.72
2023-04-03T09:57:51.521Z,16.55
2023-04-03T10:01:00.364Z,16.58
2023-04-03T10:04:13.968Z,16.14
2023-04-03T10:07:38.255Z,17.65
2023-04-03T10:10:42.685Z,17.78
2023-04-03T10:14:00.657Z,16.17
2023-04-03T10:17:24.280Z,16.89
2023-04-03T10:20:32.719Z,16.88
2023-04-03T10:23:49.910Z,16.46
2023-04-03T10:27:03.859Z,16.47
2023-04-03T10:30:21.943Z,16.86
2023-04-03T10:33:48.896Z,16.13
2023-04-03T10:37:22.045Z,16.77
2023-04-03T10:40:35.735Z,17.35
2023-04-03T10:43:58.243Z,17.10
2023-04-03T10:47:15.668Z,16.45
2023-04-03T10:50:45.945Z,16.62
2023-04-03T10:53:58.510Z,16.21
2023-04-03T10:57:12.518Z,16.48
2023-04-03T11:00:19.284Z,16.64
2023-04-03T11:03:25.683Z,16.23
2023-04-03T11:06:37.856Z,15.90
2023-04-03T11:09:45.092Z,16.24
2023-04-03T11:12:53.769Z,15.83
2023-04-03T11:15:58.929Z,15.73
2023-04-03T11:19:13.360Z,15.43
2023-04-03T11:22:28.025Z,15.78
2023-04-03T11:25:33.845Z,16.38
2023-04-03T11:28:38.199Z,15.19
2023-04-03T11:32:07.738Z,15.24
2023-04-03T11:35:10.923Z,15.39
2023-04-03T11:38:23.985Z,15.55
2023-04-03T11:41:32.293Z,15.10
2023-04-03T11:44:39.366Z,14.50
2023-04-03T11:47:47.757Z,15.10
2023-04-03T11:50:51.458Z,14.09
2023-04-03T11:53:54.577Z,13.87
2023-04-03T11:56:57.101Z,13.65
2023-04-03T11:59:59.475Z,14.04
2023-04-03T12:03:02.350Z,13.45
2023-04-03T12:06:17.828Z,14.23
2023-04-03T12:09:34.150Z,13.11
2023-04-03T12:12:41.690Z,13.70
2023-04-03T12:15:52.931Z,13.19
2023-04-03T12:19:13.754Z,12.59
2023-04-03T12:22:21.540Z,11.82
2023-04-03T12:25:50.882Z,10.43
2023-04-03T12:28:56.584Z,10.47
2023-04-03T12:32:18.439Z,10.85
2023-04-03T12:35:50.421Z,11.33
2023-04-03T12:38:59.902Z,11.72
2023-04-03T12:42:24.264Z,11.47
2023-04-03T12:45:27.336Z,11.86
2023-04-03T12:48:32.574Z,12.11
2023-04-03T12:51:39.598Z,11.84
2023-04-03T12:54:42.954Z,12.05
2023-04-03T12:57:45.779Z,12.26
2023-04-03T13:01:11.012Z,12.41
2023-04-03T13:04:13.754Z,12.34
2023-04-03T13:07:34.450Z,12.05
2023-04-03T13:10:50.409Z,11.74
2023-04-03T13:14:01.319Z,12.08
2023-04-03T13:17:17.479Z,11.90
2023-04-03T13:20:22.197Z,11.86
2023-04-03T13:23:25.495Z,11.53
2023-04-03T13:26:32.618Z,11.62
2023-04-03T13:29:37.759Z,11.63
2023-04-03T13:32:40.436Z,11.40
2023-04-03T13:35:43.053Z,10.96
2023-04-03T13:38:45.950Z,10.73
2023-04-03T13:41:51.606Z,10.74
2023-04-03T13:45:29.598Z,10.64
2023-04-03T13:48:44.646Z,10.62
2023-04-03T13:51:54.146Z,10.56
2023-04-03T13:55:25.798Z,10.35
2023-04-03T13:58:30.999Z,10.56
2023-04-03T14:01:50.828Z,10.55
2023-04-03T14:05:01.052Z,10.89
2023-04-03T14:08:03.703Z,10.70
2023-04-03T14:11:06.130Z,9.81
2023-04-03T14:14:19.041Z,9.40
2023-04-03T14:17:26.005Z,9.50
2023-04-03T14:20:29.256Z,9.24
2023-04-03T14:23:32.019Z,9.19
2023-04-03T14:26:34.734Z,9.18
2023-04-03T14:29:37.219Z,9.74
2023-04-03T14:32:39.952Z,9.75
2023-04-03T14:35:42.875Z,9.24
2023-04-03T14:38:45.781Z,9.11
2023-04-03T14:41:48.174Z,8.91
2023-04-03T14:44:51.414Z,9.06
2023-04-03T14:47:56.256Z,8.87
2023-04-03T14:51:05.734Z,8.74
2023-04-03T14:54:17.359Z,8.70
2023-04-03T14:57:20.136Z,8.31
2023-04-03T15:00:23.271Z,7.95
2023-04-03T15:03:25.773Z,7.46
2023-04-03T15:06:28.305Z,7.51
2023-04-03T15:09:30.816Z,7.20
2023-04-03T15:12:33.205Z,7.13
2023-04-03T15:15:38.045Z,6.94
2023-04-03T15:18:40.650Z,6.85
2023-04-03T15:21:43.089Z,6.43
2023-04-03T15:24:46.207Z,6.58
2023-04-03T15:27:49.216Z,5.69
2023-04-03T15:30:51.839Z,5.80
2023-04-03T15:33:54.248Z,5.76
2023-04-03T15:36:56.686Z,5.57
2023-04-03T15:40:00.027Z,5.38
2023-04-03T15:43:02.424Z,5.09
2023-04-03T15:46:05.057Z,4.86
2023-04-03T15:49:07.648Z,5.05
2023-04-03T15:52:10.655Z,4.73
2023-04-03T15:55:13.037Z,4.87
2023-04-03T15:58:15.499Z,4.79
2023-04-03T16:01:18.324Z,4.70
2023-04-03T16:04:21.940Z,4.40
2023-04-03T16:07:24.534Z,4.32
2023-04-03T16:10:27.781Z,4.19
2023-04-03T16:13:30.338Z,4.13
2023-04-03T16:16:33.078Z,4.29
2023-04-03T16:19:35.913Z,4.09
2023-04-03T16:22:39.030Z,3.99
2023-04-03T16:25:46.768Z,3.78
2023-04-03T16:28:49.632Z,3.84
2023-04-03T16:31:53.021Z,3.75
2023-04-03T16:34:56.155Z,3.49
2023-04-03T16:37:58.507Z,3.46
2023-04-03T16:41:05.280Z,3.33
2023-04-03T16:44:08.584Z,3.33
2023-04-03T16:47:11.914Z,3.09
2023-04-03T16:50:14.884Z,3.24
2023-04-03T16:53:17.386Z,3.00
2023-04-03T16:56:19.894Z,3.07
2023-04-03T16:59:22.795Z,2.87
2023-04-03T17:02:26.437Z,2.83
2023-04-03T17:05:29.056Z,2.73
2023-04-03T17:08:31.574Z,2.55
2023-04-03T17:14:41.672Z,2.70
2023-04-03T17:17:44.345Z,2.65
2023-04-03T17:20:46.774Z,2.65
2023-04-03T17:23:58.637Z,2.64
2023-04-03T17:27:01.241Z,2.56
2023-04-03T17:30:05.188Z,2.61
2023-04-03T17:33:07.698Z,2.42
2023-04-03T17:36:10.717Z,2.37
2023-04-03T17:39:13.332Z,2.15
2023-04-03T17:42:16.317Z,2.20
2023-04-03T17:45:18.849Z,2.25
2023-04-03T17:48:21.282Z,2.03
2023-04-03T17:51:24.195Z,2.18
2023-04-03T17:54:26.680Z,2.17
2023-04-03T17:57:30.969Z,2.11
2023-04-03T18:00:33.378Z,1.95
2023-04-03T18:03:36.291Z,1.94
2023-04-03T18:06:46.259Z,1.93
2023-04-03T18:09:50.808Z,1.96
2023-04-03T18:12:53.908Z,1.81
2023-04-03T18:15:56.798Z,1.70
2023-04-03T18:19:17.646Z,1.76
2023-04-03T18:22:24.114Z,1.87
2023-04-03T18:25:26.741Z,1.72
2023-04-03T18:28:34.487Z,1.64
2023-04-03T18:31:37.481Z,1.69
2023-04-03T18:34:40.014Z,1.58
2023-04-03T18:37:42.632Z,1.55
2023-04-03T18:40:47.369Z,1.64
2023-04-03T18:43:50.562Z,1.65
2023-04-03T18:46:53.997Z,1.63
2023-04-03T18:49:57.855Z,1.60
2023-04-03T18:53:00.567Z,1.37
2023-04-03T18:56:03.721Z,1.52
2023-04-03T18:59:06.227Z,1.54
2023-04-03T19:02:09.390Z,1.44
2023-04-03T19:05:15.077Z,1.56
2023-04-03T19:08:18.060Z,1.47
2023-04-03T19:11:20.615Z,1.41
2023-04-03T19:14:23.260Z,1.34
2023-04-03T19:17:26.019Z,1.10
2023-04-03T19:20:29.094Z,1.32
2023-04-03T19:23:31.857Z,1.09
2023-04-03T19:26:34.448Z,1.22
2023-04-03T19:29:36.913Z,1.26
2023-04-03T19:32:39.873Z,1.36
2023-04-03T19:35:42.903Z,1.38
2023-04-03T19:38:46.777Z,1.22
2023-04-03T19:41:49.919Z,1.18
2023-04-03T19:44:52.608Z,1.21
2023-04-03T19:47:55.159Z,1.29
2023-04-03T19:50:58.690Z,1.28
2023-04-03T19:54:01.180Z,1.22
2023-04-03T19:57:03.982Z,1.24
2023-04-03T20:00:07.236Z,1.00
2023-04-03T20:03:14.874Z,1.04
2023-04-03T20:06:17.510Z,1.18
2023-04-03T20:09:21.878Z,1.19
2023-04-03T20:12:24.463Z,1.19
2023-04-03T20:15:28.423Z,1.01
2023-04-03T20:18:31.369Z,0.95
2023-04-03T20:21:34.417Z,1.15
2023-04-03T20:24:36.798Z,1.17
2023-04-03T20:27:40.318Z,1.20
2023-04-03T20:30:47.711Z,0.98
2023-04-03T20:33:51.375Z,1.16
2023-04-03T20:36:53.783Z,1.14
2023-04-03T20:39:56.439Z,1.06
2023-04-03T20:42:58.843Z,1.22
2023-04-03T20:46:02.566Z,1.21
2023-04-03T20:49:05.241Z,1.02
2023-04-03T20:52:07.934Z,1.00
2023-04-03T20:55:11.022Z,1.00
2023-04-03T20:58:13.651Z,1.17
2023-04-03T21:01:21.305Z,0.99
2023-04-03T21:04:46.806Z,1.18
2023-04-03T21:08:27.371Z,1.17
2023-04-03T21:12:07.468Z,1.14
2023-04-03T21:15:46.862Z,1.16
2023-04-03T21:18:57.305Z,1.15
2023-04-03T21:22:00.630Z,1.05
2023-04-03T21:25:03.145Z,1.00
2023-04-03T21:28:05.706Z,1.02
2023-04-03T21:31:08.804Z,1.01
2023-04-03T21:34:11.261Z,1.16
2023-04-03T21:37:14.443Z,1.15
2023-04-03T21:40:17.643Z,1.13
2023-04-03T21:43:19.998Z,0.96
2023-04-03T21:46:22.495Z,1.12
2023-04-03T21:49:25.892Z,0.93
2023-04-03T21:52:28.364Z,0.94
2023-04-03T21:55:30.711Z,1.01
2023-04-03T21:58:33.920Z,0.94
2023-04-03T22:01:36.820Z,1.16
2023-04-03T22:04:39.346Z,1.07
2023-04-03T22:07:45.881Z,0.86
2023-04-03T22:10:48.380Z,0.89
2023-04-03T22:13:52.334Z,0.95
2023-04-03T22:16:54.829Z,1.09
2023-04-03T22:19:57.235Z,1.08
2023-04-03T22:22:59.631Z,0.83
2023-04-03T22:26:06.336Z,1.01
2023-04-03T22:29:08.919Z,1.02
2023-04-03T22:32:11.294Z,1.02
2023-04-03T22:35:13.936Z,1.03
2023-04-03T22:38:16.966Z,1.00
2023-04-03T22:41:19.366Z,0.78
2023-04-03T22:44:22.260Z,1.07
2023-04-03T22:47:25.925Z,0.90
2023-04-03T22:50:28.403Z,1.06
2023-04-03T22:53:31.164Z,0.84
2023-04-03T22:56:33.592Z,0.92
2023-04-03T22:59:36.043Z,0.97
2023-04-03T23:02:38.465Z,0.89
2023-04-03T23:05:40.865Z,0.84
2023-04-03T23:08:43.735Z,0.71
2023-04-03T23:11:46.367Z,0.75
2023-04-03T23:14:48.749Z,0.93
2023-04-03T23:17:51.171Z,1.00
2023-04-03T23:20:55.063Z,0.90
2023-04-03T23:23:57.937Z,0.97
2023-04-03T23:27:00.386Z,0.95
2023-04-03T23:30:03.177Z,0.90
2023-04-03T23:33:07.219Z,0.93
2023-04-03T23:36:10.278Z,0.78
2023-04-03T23:39:12.824Z,0.81
2023-04-03T23:42:15.293Z,0.74
2023-04-03T23:45:17.667Z,0.93
2023-04-03T23:48:20.548Z,0.77
2023-04-03T23:51:23.033Z,0.97
2023-04-03T23:54:25.709Z,0.78
2023-04-03T23:57:28.120Z,0.59
